Time;durP1;ratioP1;P1;durP2;ratioP2;P2;SDS_P1;SDS_P2;PMS_P1;PMS_P2;Temp;Humidity;BMP_temperature;BMP_pressure;BME280_temperature;BME280_humidity;BME280_pressure;Samples;Min_cycle;Max_cycle;Signal;HPM_P1;HPM_P2
2022/10/03 00:01:17;;;;;;;16.65;0.73;;;;;;;8.69;55.34;102230.53;5006824;28;20111;-67
2022/10/03 00:03:59;;;;;;;10.02;0.75;;;;;;;8.73;55.90;102230.53;5003546;28;20530;-67
2022/10/03 00:06:36;;;;;;;;;;;;;;;8.93;55.18;102227.69;5009988;28;20084;-67
2022/10/03 00:09:38;;;;;;;10.15;1.05;;;;;;;8.96;55.12;102227.69;5004246;28;19980;-67
2022/10/03 00:12:35;;;;;;;5.55;0.30;;;;;;;9.13;55.30;102230.06;5003837;28;20337;-66
2022/10/03 00:15:30;;;;;;;4.88;0.30;;;;;;;9.33;54.99;102245.47;5005085;28;20029;-65
2022/10/03 00:18:10;;;;;;;5.22;1.08;;;;;;;9.48;54.91;102238.34;5006135;28;20530;-65
2022/10/03 00:21:00;;;;;;;9.00;0.70;;;;;;;9.59;54.79;102239.06;5005294;28;20041;-66
2022/10/03 00:23:41;;;;;;;4.82;0.20;;;;;;;9.71;54.50;102251.91;5009864;28;20613;-66
2022/10/03 00:26:29;;;;;;;6.25;0.75;;;;;;;9.74;54.53;102248.41;5005548;28;20042;-66
2022/10/03 00:29:19;;;;;;;13.80;0.52;;;;;;;9.77;54.11;102245.75;5005431;28;20052;-66
2022/10/03 00:32:08;;;;;;;6.20;0.82;;;;;;;9.89;53.86;102248.19;5004003;28;20061;-67
2022/10/03 00:34:55;;;;;;;8.70;0.73;;;;;;;9.95;53.57;102249.88;4987191;28;20054;-71
2022/10/03 00:37:43;;;;;;;0.82;0.10;;;;;;;9.96;53.50;102248.97;5011552;28;20366;-71
2022/10/03 00:40:24;;;;;;;4.30;0.20;;;;;;;9.93;53.58;102254.25;5004787;28;20409;-74
2022/10/03 00:43:18;;;;;;;2.45;0.20;;;;;;;9.87;53.12;102256.94;5011389;28;20037;-76
2022/10/03 00:46:12;;;;;;;4.03;0.22;;;;;;;9.73;53.54;102267.56;5024107;28;20152;-74
2022/10/03 00:49:13;;;;;;;7.63;0.50;;;;;;;9.64;53.48;102268.56;5009585;28;20033;-76
2022/10/03 00:52:00;;;;;;;4.07;0.17;;;;;;;9.55;53.74;102269.53;5009376;28;20037;-76
2022/10/03 00:54:46;;;;;;;2.25;0.40;;;;;;;9.50;53.91;102270.47;5011204;28;21011;-76
2022/10/03 00:57:34;;;;;;;6.72;0.40;;;;;;;9.45;53.99;102277.50;4997144;28;20057;-76
2022/10/03 01:00:14;;;;;;;3.97;0.60;;;;;;;9.44;54.50;102275.78;5008480;28;20087;-76
2022/10/03 01:02:52;;;;;;;4.68;0.30;;;;;;;9.53;54.16;102283.50;5010218;28;20053;-76
2022/10/03 01:05:55;;;;;;;7.82;0.88;;;;;;;9.71;54.60;102291.09;5009094;28;20685;-76
2022/10/03 01:08:26;;;;;;;7.70;0.35;;;;;;;9.71;54.81;102298.91;5013730;28;20768;-76
2022/10/03 01:11:14;;;;;;;6.72;0.77;;;;;;;9.70;55.36;102288.47;5010989;28;20525;-76
2022/10/03 01:13:58;;;;;;;5.38;0.57;;;;;;;9.58;56.42;102299.97;4992097;28;20077;-76
2022/10/03 01:17:05;;;;;;;4.78;0.20;;;;;;;9.71;56.85;102290.22;5002112;28;20778;-77
2022/10/03 01:19:52;;;;;;;1.17;0.10;;;;;;;9.69;56.80;102294.59;5008172;28;20080;-76
2022/10/03 01:22:23;;;;;;;2.70;0.30;;;;;;;9.98;55.59;102299.44;5012188;28;20125;-76
2022/10/03 01:25:13;;;;;;;6.65;0.20;;;;;;;10.22;55.07;102303.44;5011573;28;20041;-67
2022/10/03 01:30:49;;;;;;;5.90;0.13;;;;;;;10.22;53.55;102309.53;5008954;28;20049;-66
2022/10/03 01:33:30;;;;;;;3.55;0.30;;;;;;;10.27;53.45;102301.59;5005821;28;20045;-67
2022/10/03 01:36:20;;;;;;;5.38;1.00;;;;;;;10.46;53.03;102307.41;5012489;28;20040;-67
2022/10/03 01:39:14;;;;;;;2.55;0.25;;;;;;;10.46;52.88;102312.63;4988554;28;20132;-67
2022/10/03 01:41:54;;;;;;;4.63;0.10;;;;;;;10.48;52.47;102316.09;5007937;28;20030;-67
2022/10/03 01:44:29;;;;;;;3.63;0.15;;;;;;;10.39;53.01;102305.75;5010448;28;20038;-66
2022/10/03 01:46:57;;;;;;;1.33;0.00;;;;;;;10.39;53.34;102311.88;5005071;28;20561;-67
2022/10/03 01:49:41;;;;;;;0.90;0.40;;;;;;;10.42;53.71;102326.63;5008681;28;20026;-67
2022/10/03 01:52:22;;;;;;;3.63;0.30;;;;;;;10.42;53.79;102313.56;5008826;28;20112;-67
2022/10/03 01:54:59;;;;;;;2.55;0.15;;;;;;;10.46;53.61;102323.09;5009321;28;20071;-67
2022/10/03 01:57:53;;;;;;;5.15;0.20;;;;;;;10.54;53.12;102323.81;5007320;28;20119;-66
2022/10/03 02:00:24;;;;;;;0.98;0.20;;;;;;;10.45;53.19;102325.72;5005663;28;20049;-67
2022/10/03 02:03:14;;;;;;;3.22;0.20;;;;;;;10.33;53.33;102326.78;5002944;28;20046;-67
2022/10/03 02:06:05;;;;;;;6.47;0.38;;;;;;;10.19;53.51;102330.47;5007228;28;20026;-68
2022/10/03 02:08:39;;;;;;;3.80;0.10;;;;;;;10.05;53.58;102332.41;5004329;28;20122;-68
2022/10/03 02:11:08;;;;;;;3.92;0.20;;;;;;;10.00;53.72;102329.03;5007228;28;20128;-66
2022/10/03 02:13:44;;;;;;;3.80;0.40;;;;;;;9.89;53.79;102323.94;5006154;28;20271;-72
2022/10/03 02:16:44;;;;;;;9.45;0.57;;;;;;;9.78;54.12;102324.03;5028820;28;20056;-70
2022/10/03 02:19:23;;;;;;;15.63;0.52;;;;;;;9.57;55.25;102325.22;5007789;28;20189;-71
2022/10/03 02:21:57;;;;;;;2.70;0.52;;;;;;;9.72;54.86;102324.16;5005821;28;20076;-70
2022/10/03 02:24:52;;;;;;;2.97;0.40;;;;;;;9.65;54.90;102312.03;5029639;28;20051;-70
2022/10/03 02:27:45;;;;;;;1.35;0.10;;;;;;;9.62;54.53;102322.53;5006192;28;20042;-69
2022/10/03 02:30:32;;;;;;;6.30;0.85;;;;;;;9.55;54.70;102320.91;5011831;28;20873;-70
2022/10/03 02:33:03;;;;;;;3.97;0.63;;;;;;;9.42;54.36;102319.31;5007084;28;20601;-71
2022/10/03 02:35:44;;;;;;;2.85;0.22;;;;;;;9.33;54.70;102320.28;5006455;28;20057;-70
2022/10/03 02:38:48;;;;;;;5.53;0.30;;;;;;;9.27;54.65;102320.34;5012306;28;20509;-70
2022/10/03 02:41:41;;;;;;;6.63;0.30;;;;;;;9.23;55.38;102322.16;4947792;28;20043;-70
2022/10/03 02:44:34;;;;;;;9.35;0.60;;;;;;;9.22;55.26;102327.38;4947129;28;20138;-71
2022/10/03 02:47:21;;;;;;;4.05;0.38;;;;;;;9.14;55.49;102330.03;4991437;28;20154;-71
2022/10/03 02:50:29;;;;;;;4.43;0.17;;;;;;;9.19;55.76;102336.09;4995251;28;20049;-65
2022/10/03 02:53:00;;;;;;;1.80;0.35;;;;;;;9.34;55.93;102333.31;5005406;28;20251;-65
2022/10/03 02:55:35;;;;;;;4.13;0.10;;;;;;;9.42;55.78;102340.19;5010441;28;20041;-66
2022/10/03 02:58:39;;;;;;;4.82;0.40;;;;;;;9.55;55.63;102341.78;5006435;28;20053;-68
2022/10/03 03:01:42;;;;;;;7.18;0.80;;;;;;;9.65;55.56;102345.97;4995661;28;20040;-69
2022/10/03 03:04:08;;;;;;;6.90;0.50;;;;;;;9.61;55.60;102341.72;5008676;28;20784;-68
2022/10/03 03:06:51;;;;;;;6.60;0.20;;;;;;;9.65;55.39;102343.38;5005892;28;20029;-69
2022/10/03 03:09:43;;;;;;;6.55;0.88;;;;;;;9.57;55.45;102347.84;5009291;28;20029;-68
2022/10/03 03:12:26;;;;;;;5.40;0.30;;;;;;;9.57;55.65;102351.31;5005730;28;20058;-68
2022/10/03 03:15:08;;;;;;;5.35;0.20;;;;;;;9.70;55.38;102341.59;5005002;28;20554;-68
2022/10/03 03:17:53;;;;;;;6.38;0.50;;;;;;;9.73;55.26;102346.75;4993172;28;20481;-66
2022/10/03 03:20:42;;;;;;;3.15;0.30;;;;;;;9.75;55.02;102344.13;5007352;28;20785;-66
2022/10/03 03:23:35;;;;;;;4.68;0.30;;;;;;;9.63;55.90;102345.13;5005517;28;20516;-66
2022/10/03 03:26:18;;;;;;;3.80;0.15;;;;;;;9.73;55.58;102346.75;5008186;28;20033;-66
2022/10/03 03:29:09;;;;;;;5.13;0.70;;;;;;;9.73;54.72;102351.97;5005425;28;20472;-66
2022/10/03 03:32:19;;;;;;;3.95;0.10;;;;;;;9.64;55.20;102352.09;5027695;28;20033;-66
2022/10/03 03:34:56;;;;;;;2.67;0.22;;;;;;;9.58;55.45;102346.94;4894774;29;20043;-68
2022/10/03 03:37:48;;;;;;;2.75;0.30;;;;;;;9.65;55.34;102353.81;4897046;29;20056;-67
2022/10/03 03:40:38;;;;;;;8.43;0.40;;;;;;;9.71;55.66;102360.72;4977265;28;20046;-67
2022/10/03 03:43:23;;;;;;;7.38;0.35;;;;;;;9.67;55.12;102362.50;5005200;28;20053;-68
2022/10/03 03:46:18;;;;;;;2.97;0.20;;;;;;;9.55;54.97;102360.03;5004128;28;20045;-67
2022/10/03 03:48:46;;;;;;;2.78;0.30;;;;;;;9.43;55.15;102368.00;5005087;28;20046;-68
2022/10/03 03:51:34;;;;;;;7.72;0.77;;;;;;;9.36;55.69;102362.00;5009190;28;20075;-69
2022/10/03 03:54:28;;;;;;;6.90;0.30;;;;;;;9.42;55.56;102361.94;5003365;28;20046;-67
2022/10/03 03:57:06;;;;;;;7.22;0.40;;;;;;;9.51;55.68;102364.44;5006335;28;20033;-69
2022/10/03 03:59:37;;;;;;;4.93;0.20;;;;;;;9.59;55.67;102374.78;5011007;28;22810;-69
2022/10/03 04:02:21;;;;;;;4.93;0.20;;;;;;;9.57;55.14;102360.91;5025945;28;20057;-69
2022/10/03 04:05:11;;;;;;;3.10;0.30;;;;;;;9.55;55.08;102378.31;5009072;28;20033;-69
2022/10/03 04:07:49;;;;;;;4.15;0.20;;;;;;;9.57;55.62;102379.16;5003198;28;20100;-67
2022/10/03 04:10:20;;;;;;;1.83;0.15;;;;;;;9.61;55.28;102373.03;4991990;28;20624;-67
2022/10/03 04:13:10;;;;;;;4.32;0.20;;;;;;;9.63;55.28;102380.81;5006333;28;20144;-68
2022/10/03 04:16:07;;;;;;;5.63;0.47;;;;;;;9.61;55.59;102383.47;5014276;28;20033;-68
2022/10/03 04:18:57;;;;;;;2.88;0.30;;;;;;;9.63;55.50;102384.28;5010550;28;20576;-67
2022/10/03 04:21:49;;;;;;;1.02;0.10;;;;;;;9.64;55.51;102393.88;5006357;28;20033;-68
2022/10/03 04:24:27;;;;;;;;;;;;;;;9.55;55.42;102396.59;5010340;28;20072;-68
2022/10/03 04:27:36;;;;;;;3.60;0.20;;;;;;;9.44;55.55;102393.25;5008962;28;19975;-68
2022/10/03 04:30:13;;;;;;;5.65;0.73;;;;;;;9.34;55.45;102398.56;5014681;28;20044;-68
2022/10/03 04:33:17;;;;;;;5.80;0.38;;;;;;;9.36;55.89;102401.13;5011589;28;20072;-67
2022/10/03 04:35:46;;;;;;;7.43;0.47;;;;;;;9.38;56.07;102401.97;4996829;28;20036;-68
2022/10/03 04:38:22;;;;;;;4.93;0.40;;;;;;;9.50;55.94;102395.75;5006599;28;20068;-67
2022/10/03 04:41:17;;;;;;;6.10;0.82;;;;;;;9.54;56.11;102402.66;5014310;28;20033;-68
2022/10/03 04:43:53;;;;;;;9.00;0.38;;;;;;;9.62;55.90;102403.47;5008630;28;20572;-68
2022/10/03 04:46:45;;;;;;;7.07;0.50;;;;;;;9.70;55.94;102403.34;5008255;28;20456;-68
2022/10/03 04:49:34;;;;;;;4.40;0.28;;;;;;;9.83;55.88;102412.81;5008263;28;20049;-67
2022/10/03 04:52:13;;;;;;;10.60;0.75;;;;;;;9.81;55.72;102409.34;5012154;28;20091;-68
2022/10/03 04:55:16;;;;;;;8.13;0.70;;;;;;;9.88;55.70;102407.53;5009137;28;20507;-68
2022/10/03 04:57:42;;;;;;;12.77;0.63;;;;;;;9.91;55.44;102407.50;5010410;28;20605;-67
2022/10/03 05:00:24;;;;;;;9.10;0.60;;;;;;;9.97;55.37;102412.66;5010819;28;20021;-76
2022/10/03 05:03:04;;;;;;;11.95;0.35;;;;;;;9.91;55.25;102412.72;5013836;28;20051;-77
2022/10/03 05:05:54;;;;;;;5.95;0.40;;;;;;;9.94;55.35;102408.31;5008513;28;20120;-65
2022/10/03 05:08:25;;;;;;;6.38;0.57;;;;;;;9.94;55.83;102420.50;5005629;28;20760;-71
2022/10/03 05:11:05;;;;;;;5.53;0.25;;;;;;;9.98;55.81;102414.38;5007977;28;20033;-69
2022/10/03 05:13:31;;;;;;;4.05;0.55;;;;;;;10.04;55.60;102413.44;5004555;28;20064;-69
2022/10/03 05:16:15;;;;;;;5.68;0.30;;;;;;;10.11;55.58;102410.72;5007883;28;20041;-67
2022/10/03 05:18:53;;;;;;;7.65;0.43;;;;;;;10.12;55.56;102422.88;5007480;28;20045;-68
2022/10/03 05:22:07;;;;;;;3.67;0.70;;;;;;;10.08;55.34;102421.22;5006046;28;22679;-68
2022/10/03 05:24:37;;;;;;;6.07;0.57;;;;;;;10.03;55.32;102423.00;4986374;28;20053;-67
2022/10/03 05:27:57;;;;;;;10.15;0.60;;;;;;;10.02;55.11;102422.16;4993361;28;20057;-68
2022/10/03 05:30:34;;;;;;;3.13;0.75;;;;;;;9.97;55.24;102420.50;4950487;28;20302;-68
2022/10/03 05:33:11;;;;;;;6.43;0.85;;;;;;;10.04;55.24;102424.75;4945852;28;20050;-66
2022/10/03 05:36:22;;;;;;;5.13;0.35;;;;;;;10.02;55.36;102424.75;4992015;28;20049;-68
2022/10/03 05:39:18;;;;;;;5.80;0.15;;;;;;;10.06;55.12;102432.53;5008810;28;20318;-68
2022/10/03 05:42:11;;;;;;;7.65;0.38;;;;;;;10.05;54.94;102425.59;5026009;28;20854;-67
2022/10/03 05:44:47;;;;;;;4.32;0.50;;;;;;;10.00;54.99;102434.34;5008111;28;20042;-67
2022/10/03 05:47:45;;;;;;;4.38;0.47;;;;;;;9.98;55.00;102430.03;5027300;28;20490;-69
2022/10/03 05:50:42;;;;;;;6.38;0.35;;;;;;;9.91;55.16;102433.63;5005789;28;20044;-68
2022/10/03 05:53:26;;;;;;;6.57;0.77;;;;;;;9.89;55.30;102435.38;5002225;28;20053;-68
2022/10/03 05:56:21;;;;;;;6.38;0.75;;;;;;;10.05;55.34;102439.53;5006159;28;20059;-68
2022/10/03 05:59:15;;;;;;;7.63;1.13;;;;;;;10.35;55.52;102443.50;5004812;28;20161;-73
2022/10/03 06:01:59;;;;;;;6.50;0.95;;;;;;;10.55;55.25;102443.19;5021077;28;20398;-73
2022/10/03 06:04:36;;;;;;;1.88;0.52;;;;;;;10.64;54.97;102436.97;4986946;28;20029;-72
2022/10/03 06:07:17;;;;;;;7.72;0.70;;;;;;;10.77;54.38;102448.97;5005819;28;20163;-72
2022/10/03 06:10:11;;;;;;;15.83;1.17;;;;;;;11.07;53.95;102440.66;5011765;28;20026;-71
2022/10/03 06:13:05;;;;;;;2.47;0.60;;;;;;;11.53;53.51;102439.81;4991268;28;20053;-72
2022/10/03 06:15:37;;;;;;;5.95;0.35;;;;;;;12.05;51.87;102452.78;5026409;28;20041;-70
2022/10/03 06:18:14;;;;;;;;;;;;;;;12.22;51.97;102452.44;5005573;28;20541;-70
2022/10/03 06:21:17;;;;;;;6.57;0.70;;;;;;;12.07;51.45;102452.75;5005909;28;19948;-69
2022/10/03 06:24:20;;;;;;;8.93;0.38;;;;;;;12.07;51.52;102450.13;5010796;28;20046;-68
2022/10/03 06:27:19;;;;;;;6.68;0.98;;;;;;;11.83;51.52;102444.50;5005887;28;20029;-69
2022/10/03 06:30:11;;;;;;;6.70;0.68;;;;;;;11.94;52.02;102453.91;5011330;28;20029;-68
2022/10/03 06:33:05;;;;;;;2.97;0.30;;;;;;;12.00;51.70;102451.13;5000786;28;20046;-72
2022/10/03 06:36:12;;;;;;;9.90;0.82;;;;;;;12.56;50.68;102456.91;5009948;28;20646;-69
2022/10/03 06:39:13;;;;;;;7.38;0.75;;;;;;;13.17;50.62;102446.69;5006267;28;20392;-68
2022/10/03 06:42:16;;;;;;;5.85;0.63;;;;;;;15.96;46.91;102454.56;5006467;28;20107;-67
2022/10/03 06:45:02;;;;;;;3.42;0.30;;;;;;;17.03;40.25;102449.47;5011695;28;20025;-65
2022/10/03 06:48:00;;;;;;;5.82;0.55;;;;;;;17.54;40.67;102456.09;5008732;28;20041;-68
2022/10/03 06:50:35;;;;;;;3.33;0.30;;;;;;;18.14;35.52;102460.41;5011836;28;20058;-70
2022/10/03 06:53:10;;;;;;;8.45;0.65;;;;;;;16.73;38.28;102470.94;5010637;28;20562;-69
2022/10/03 06:56:31;;;;;;;8.07;0.77;;;;;;;15.54;41.27;102464.00;5005191;28;20124;-71
2022/10/03 06:59:04;;;;;;;7.78;0.90;;;;;;;16.99;40.81;102463.72;4920654;28;22809;-69
2022/10/03 07:01:51;;;;;;;6.82;0.32;;;;;;;19.29;37.26;102468.84;5007454;28;20037;-69
2022/10/03 07:04:53;;;;;;;4.65;0.32;;;;;;;21.98;29.85;102460.56;5003936;28;20046;-67
2022/10/03 07:07:39;;;;;;;;;;;;;;;22.78;28.53;102466.03;5008028;28;20370;-70
2022/10/03 07:10:46;;;;;;;3.60;0.30;;;;;;;20.90;29.80;102461.78;4995961;28;19913;-74
2022/10/03 07:13:29;;;;;;;5.88;0.40;;;;;;;18.87;34.37;102467.47;4983731;28;20404;-69
2022/10/03 07:16:09;;;;;;;5.15;0.40;;;;;;;20.96;31.95;102467.72;5005150;28;20356;-67
2022/10/03 07:19:00;;;;;;;4.05;0.40;;;;;;;22.86;28.70;102469.03;5005469;28;20077;-67
2022/10/03 07:22:03;;;;;;;4.63;0.40;;;;;;;24.41;27.96;102471.47;4987603;28;20044;-69
2022/10/03 07:24:53;;;;;;;5.00;0.57;;;;;;;25.23;25.21;102467.97;5010956;28;20920;-69
2022/10/03 07:27:47;;;;;;;3.50;0.50;;;;;;;25.69;24.91;102459.00;5003078;28;20537;-67
2022/10/03 07:30:24;;;;;;;3.03;0.40;;;;;;;26.07;25.07;102468.47;5010594;28;20065;-69
2022/10/03 07:33:11;;;;;;;5.78;0.32;;;;;;;26.43;24.09;102474.44;5004268;28;20061;-68
2022/10/03 07:38:58;;;;;;;6.38;0.30;;;;;;;25.97;23.93;102478.19;5004965;28;20052;-67
2022/10/03 07:41:59;;;;;;;5.40;0.50;;;;;;;26.70;23.13;102488.22;5027748;28;20095;-67
2022/10/03 07:45:02;;;;;;;2.95;0.50;;;;;;;26.40;23.60;102491.63;5006923;28;20061;-67
2022/10/03 07:47:47;;;;;;;5.07;0.47;;;;;;;26.18;23.56;102491.69;5007188;28;20495;-73
2022/10/03 07:50:40;;;;;;;7.18;0.50;;;;;;;26.83;22.79;102489.91;5016375;28;20045;-73
2022/10/03 07:53:25;;;;;;;5.97;0.50;;;;;;;26.21;24.49;102497.66;4999536;28;20060;-74
2022/10/03 07:56:25;;;;;;;7.45;0.43;;;;;;;26.71;23.93;102497.13;5010136;28;20140;-68
2022/10/03 07:59:28;;;;;;;5.22;0.77;;;;;;;25.24;24.61;102501.75;5011851;28;20056;-70
2022/10/03 08:02:31;;;;;;;6.50;0.65;;;;;;;25.52;23.70;102503.16;5023297;28;20076;-71
2022/10/03 08:05:20;;;;;;;5.43;0.60;;;;;;;24.26;25.66;102504.63;5031303;28;20040;-69
2022/10/03 08:07:54;;;;;;;6.63;0.75;;;;;;;21.23;30.29;102505.09;5008436;28;20053;-69
2022/10/03 08:10:39;;;;;;;10.25;0.57;;;;;;;19.91;32.69;102519.53;4997898;28;20091;-68
2022/10/03 08:13:19;;;;;;;5.05;0.70;;;;;;;18.20;35.00;102519.22;5007692;28;20056;-70
2022/10/03 08:15:53;;;;;;;7.65;0.47;;;;;;;17.61;36.29;102518.31;5009411;28;20036;-68
2022/10/03 08:18:31;;;;;;;2.63;0.20;;;;;;;17.35;38.27;102510.63;5006090;28;20057;-68
2022/10/03 08:21:09;;;;;;;10.00;0.60;;;;;;;17.48;38.15;102526.88;5008227;28;20029;-71
2022/10/03 08:24:22;;;;;;;9.60;0.90;;;;;;;17.59;37.17;102527.25;5012994;28;20139;-71
2022/10/03 08:27:12;;;;;;;6.90;0.38;;;;;;;17.69;37.88;102527.69;4977026;28;20055;-71
2022/10/03 08:30:02;;;;;;;5.53;0.57;;;;;;;17.24;38.21;102535.72;5009397;28;20029;-70
2022/10/03 08:32:59;;;;;;;5.40;0.40;;;;;;;16.91;38.62;102535.38;5004027;28;20081;-70
2022/10/03 08:35:37;;;;;;;7.40;0.75;;;;;;;16.37;39.67;102537.44;5005156;28;20116;-70
2022/10/03 08:38:45;;;;;;;7.50;0.50;;;;;;;16.10;39.97;102549.88;5004358;28;20111;-71
2022/10/03 08:41:35;;;;;;;2.58;0.57;;;;;;;16.20;39.92;102547.78;4989170;28;20136;-70
2022/10/03 08:44:24;;;;;;;7.22;0.38;;;;;;;16.31;41.13;102553.50;5026666;28;20063;-70
2022/10/03 08:47:11;;;;;;;9.27;0.43;;;;;;;15.21;41.01;102538.91;5007487;28;20120;-70
2022/10/03 08:50:01;;;;;;;3.50;0.90;;;;;;;15.72;40.56;102551.25;5008746;28;20099;-70
2022/10/03 08:52:54;;;;;;;4.32;0.63;;;;;;;15.65;40.69;102555.00;5011110;28;20581;-70
2022/10/03 08:55:32;;;;;;;4.93;0.25;;;;;;;15.75;40.67;102552.00;5008424;28;20037;-69
2022/10/03 08:58:19;;;;;;;4.07;0.63;;;;;;;16.51;39.84;102555.41;5005840;28;20324;-69
2022/10/03 09:01:15;;;;;;;12.63;0.93;;;;;;;16.21;39.90;102560.03;5012318;28;20038;-69
2022/10/03 09:04:11;;;;;;;6.20;0.40;;;;;;;16.30;39.67;102561.47;5013098;28;20037;-70
2022/10/03 09:06:52;;;;;;;4.43;0.17;;;;;;;16.30;39.96;102562.34;5012869;28;20038;-70
2022/10/03 09:09:20;;;;;;;5.03;0.32;;;;;;;16.94;38.65;102555.50;5005115;28;20046;-69
2022/10/03 09:12:20;;;;;;;5.78;0.30;;;;;;;17.20;36.79;102568.50;5025136;28;20037;-70
2022/10/03 09:15:04;;;;;;;3.20;0.43;;;;;;;16.72;38.45;102566.03;5008025;28;20068;-70
2022/10/03 09:17:35;;;;;;;4.60;0.20;;;;;;;16.65;38.88;102559.28;5004224;28;20149;-70
2022/10/03 09:20:48;;;;;;;5.05;0.32;;;;;;;17.01;37.67;102559.63;5005341;28;20165;-70
2022/10/03 09:23:55;;;;;;;5.05;0.80;;;;;;;18.25;35.23;102553.41;5003685;28;20042;-70
2022/10/03 09:26:56;;;;;;;8.27;0.32;;;;;;;18.67;34.16;102560.25;5005291;28;20401;-70
2022/10/03 09:29:47;;;;;;;4.45;0.45;;;;;;;19.64;33.43;102553.72;5025038;28;20403;-69
2022/10/03 09:32:45;;;;;;;2.08;0.20;;;;;;;18.08;34.67;102550.66;5006188;28;20046;-72
2022/10/03 09:35:28;;;;;;;2.53;0.55;;;;;;;17.18;36.95;102569.47;5000269;28;20041;-71
2022/10/03 09:37:56;;;;;;;4.35;0.35;;;;;;;16.92;37.73;102568.75;5006110;28;20063;-72
2022/10/03 09:40:27;;;;;;;6.28;0.30;;;;;;;17.11;37.75;102563.56;5003471;28;20128;-71
2022/10/03 09:43:00;;;;;;;2.00;0.20;;;;;;;17.23;38.55;102567.53;5011437;28;20045;-70
2022/10/03 09:45:46;;;;;;;7.43;0.40;;;;;;;16.50;37.73;102561.56;5024876;28;20493;-71
2022/10/03 09:48:43;;;;;;;5.30;0.65;;;;;;;16.83;38.03;102559.44;5002603;28;20053;-72
2022/10/03 09:51:15;;;;;;;7.35;0.32;;;;;;;16.53;37.85;102565.88;5006772;28;20367;-70
2022/10/03 09:53:59;;;;;;;10.07;0.30;;;;;;;16.44;37.48;102559.16;5009313;28;20143;-71
2022/10/03 09:56:27;;;;;;;3.33;0.65;;;;;;;17.02;37.67;102563.97;5009602;28;20164;-71
2022/10/03 09:59:26;;;;;;;3.10;0.20;;;;;;;18.23;35.10;102550.00;4985584;28;20048;-72
2022/10/03 10:02:09;;;;;;;3.33;0.30;;;;;;;18.87;35.03;102557.53;4996710;28;20037;-70
2022/10/03 10:04:53;;;;;;;4.45;0.38;;;;;;;19.99;33.83;102556.28;5004387;28;20029;-70
2022/10/03 10:07:43;;;;;;;3.35;0.50;;;;;;;18.74;33.62;102553.72;4998745;28;22402;-70
2022/10/03 10:10:23;;;;;;;9.90;0.88;;;;;;;17.94;35.55;102561.84;5003778;28;20124;-69
2022/10/03 10:13:10;;;;;;;6.55;0.55;;;;;;;18.01;35.94;102560.66;5004510;28;20057;-70
2022/10/03 10:15:57;;;;;;;2.10;0.50;;;;;;;18.79;34.45;102548.25;5004973;28;20060;-70
2022/10/03 10:18:49;;;;;;;4.10;0.40;;;;;;;19.54;33.25;102552.44;5001631;28;20083;-70
2022/10/03 10:21:20;;;;;;;5.15;0.22;;;;;;;18.45;34.06;102558.66;5002837;28;20047;-70
2022/10/03 10:23:55;;;;;;;;;;;;;;;18.17;35.43;102556.38;5002879;28;20050;-71
2022/10/03 10:26:29;;;;;;;5.38;0.60;;;;;;;18.71;34.03;102559.19;5003069;28;19923;-69
2022/10/03 10:29:23;;;;;;;5.53;0.35;;;;;;;18.09;35.14;102552.38;5002599;28;20049;-70
2022/10/03 10:32:13;;;;;;;6.88;0.32;;;;;;;17.68;35.59;102558.59;5023825;28;20080;-70
2022/10/03 10:34:57;;;;;;;6.57;0.20;;;;;;;18.19;35.28;102545.78;5003299;28;20113;-70
2022/10/03 10:37:53;;;;;;;5.15;0.30;;;;;;;18.79;33.88;102546.44;5000285;28;20050;-70
2022/10/03 10:40:53;;;;;;;3.85;0.30;;;;;;;18.56;33.97;102546.69;4999953;28;20034;-68
2022/10/03 10:43:47;;;;;;;6.43;0.60;;;;;;;17.93;36.98;102546.91;5005935;28;20132;-69
2022/10/03 10:46:40;;;;;;;8.40;0.30;;;;;;;19.01;35.56;102548.94;5002368;28;20303;-68
2022/10/03 10:49:42;;;;;;;3.75;0.30;;;;;;;19.26;34.88;102542.41;5006856;28;20056;-68
2022/10/03 10:52:40;;;;;;;4.95;0.20;;;;;;;17.49;36.09;102540.00;5002410;28;20049;-68
2022/10/03 10:55:36;;;;;;;7.93;0.30;;;;;;;17.19;37.67;102550.06;4966253;28;20136;-69
2022/10/03 10:58:24;;;;;;;4.88;0.98;;;;;;;17.74;36.37;102549.50;5000824;28;20038;-69
2022/10/03 11:01:21;;;;;;;2.25;0.20;;;;;;;18.36;35.93;102542.31;5003179;28;20133;-68
2022/10/03 11:04:19;;;;;;;5.80;0.68;;;;;;;19.28;35.00;102552.00;5002338;28;20510;-69
2022/10/03 11:07:10;;;;;;;6.28;0.75;;;;;;;19.09;34.11;102553.84;5004218;28;20049;-69
2022/10/03 11:10:13;;;;;;;3.38;0.45;;;;;;;17.88;36.29;102548.91;5006687;28;20068;-68
2022/10/03 11:13:20;;;;;;;6.13;0.30;;;;;;;17.40;38.05;102550.94;5001386;28;20041;-68
2022/10/03 11:15:51;;;;;;;3.42;0.15;;;;;;;16.96;37.78;102551.03;5008601;28;20041;-70
2022/10/03 11:18:55;;;;;;;5.25;0.50;;;;;;;16.97;37.41;102544.81;5002871;28;20064;-68
2022/10/03 11:21:26;;;;;;;5.95;0.28;;;;;;;17.05;37.97;102547.16;5006080;28;20132;-70
2022/10/03 11:24:10;;;;;;;;;;;;;;;16.57;38.19;102549.00;5000261;28;20060;-68
2022/10/03 11:27:00;;;;;;;6.03;0.43;;;;;;;16.56;39.61;102544.66;5001852;28;19957;-67
2022/10/03 11:30:02;;;;;;;3.15;0.20;;;;;;;17.58;36.84;102538.75;5000291;28;20046;-67
2022/10/03 11:33:12;;;;;;;1.15;0.20;;;;;;;18.78;34.33;102546.50;5019351;28;21639;-67
2022/10/03 11:36:09;;;;;;;3.78;0.40;;;;;;;17.41;37.37;102550.88;4999996;28;20123;-68
2022/10/03 11:38:45;;;;;;;6.30;0.50;;;;;;;17.41;37.65;102547.38;4999680;28;20046;-67
2022/10/03 11:41:22;;;;;;;6.47;0.45;;;;;;;17.20;37.36;102555.31;5001428;28;20095;-68
2022/10/03 11:44:15;;;;;;;2.90;0.20;;;;;;;16.89;38.94;102552.16;5001850;28;20746;-69
2022/10/03 11:47:11;;;;;;;8.65;0.50;;;;;;;17.02;37.98;102540.19;5000578;28;20033;-68
2022/10/03 11:50:01;;;;;;;4.15;0.20;;;;;;;17.47;37.34;102549.78;5006938;28;20034;-68
2022/10/03 11:52:53;;;;;;;3.97;0.30;;;;;;;17.62;36.61;102549.13;4999281;28;20069;-68
2022/10/03 11:55:41;;;;;;;7.32;0.35;;;;;;;17.66;36.82;102552.50;4999127;28;20107;-68
2022/10/03 11:58:24;;;;;;;2.35;0.30;;;;;;;17.58;37.19;102546.66;4992088;28;20057;-68
2022/10/03 12:01:11;;;;;;;6.18;0.50;;;;;;;17.31;37.08;102543.41;5007150;28;20025;-68
2022/10/03 12:03:50;;;;;;;1.45;0.47;;;;;;;16.80;38.12;102549.00;4999466;28;20041;-69
2022/10/03 12:10:02;;;;;;;8.00;0.77;;;;;;;17.00;38.54;102544.66;5004168;28;20096;-68
2022/10/03 12:12:30;;;;;;;4.15;0.40;;;;;;;17.62;36.99;102545.63;5000711;28;20057;-68
2022/10/03 12:15:22;;;;;;;1.77;0.10;;;;;;;18.31;35.85;102541.69;5001527;28;20634;-68
2022/10/03 12:18:04;;;;;;;3.55;0.40;;;;;;;18.29;36.79;102538.25;5000997;28;21024;-69
2022/10/03 12:20:45;;;;;;;3.90;0.82;;;;;;;17.70;36.29;102545.31;5000635;28;20030;-69
2022/10/03 12:23:35;;;;;;;3.60;0.50;;;;;;;18.84;35.20;102543.56;4999684;28;20049;-69
2022/10/03 12:26:03;;;;;;;5.43;0.80;;;;;;;18.91;34.84;102546.81;5003134;28;20087;-68
2022/10/03 12:28:38;;;;;;;2.53;0.55;;;;;;;18.86;35.04;102542.56;4998935;28;20680;-68
2022/10/03 12:31:30;;;;;;;2.97;0.28;;;;;;;18.88;34.90;102532.78;4999627;28;20044;-69
2022/10/03 12:34:18;;;;;;;6.97;0.30;;;;;;;18.68;35.04;102546.09;4992210;28;20037;-69
2022/10/03 12:37:00;;;;;;;3.92;0.98;;;;;;;19.33;34.56;102535.84;5004810;28;20029;-69
2022/10/03 12:40:00;;;;;;;4.50;0.30;;;;;;;19.90;33.13;102524.94;5001368;28;20239;-69
2022/10/03 12:42:41;;;;;;;3.22;0.20;;;;;;;19.82;32.31;102530.66;5004364;28;20201;-70
2022/10/03 12:45:17;;;;;;;2.72;0.20;;;;;;;19.49;33.75;102538.56;5009021;28;20530;-71
2022/10/03 12:48:24;;;;;;;4.60;0.17;;;;;;;19.07;34.24;102532.69;5004068;28;20072;-70
2022/10/03 12:50:55;;;;;;;6.75;0.20;;;;;;;18.77;34.78;102524.47;5004126;28;20037;-69
2022/10/03 12:53:34;;;;;;;1.95;0.20;;;;;;;19.28;34.34;102525.47;4999597;28;20119;-69
2022/10/03 12:56:12;;;;;;;3.67;0.10;;;;;;;18.67;34.03;102525.84;5007208;28;20033;-69
2022/10/03 12:59:10;;;;;;;3.95;0.30;;;;;;;18.83;34.46;102534.78;5000928;28;20053;-69
2022/10/03 13:01:59;;;;;;;3.05;0.35;;;;;;;18.56;34.07;102520.19;4974615;28;20517;-69
2022/10/03 13:04:25;;;;;;;2.42;0.20;;;;;;;18.80;34.36;102523.47;5003751;28;20171;-69
2022/10/03 13:07:12;;;;;;;2.65;0.10;;;;;;;18.10;36.15;102528.50;4983241;28;20029;-69
2022/10/03 13:09:59;;;;;;;3.67;0.45;;;;;;;18.37;35.31;102528.19;5009273;28;20026;-68
2022/10/03 13:12:42;;;;;;;1.42;0.40;;;;;;;18.57;35.29;102522.78;5003640;28;20042;-69